createdAt,value
2023-02-25T00:02:26.194Z,2.87
2023-02-25T00:06:38.757Z,2.72
2023-02-25T00:11:04.664Z,2.76
2023-02-25T00:15:17.118Z,2.74
2023-02-25T00:19:29.600Z,2.70
2023-02-25T00:23:54.460Z,2.53
2023-02-25T00:28:07.450Z,2.64
2023-02-25T00:32:20.796Z,2.55
2023-02-25T00:36:33.933Z,2.55
2023-02-25T00:40:46.376Z,2.47
2023-02-25T00:44:58.817Z,2.32
2023-02-25T00:49:16.707Z,2.33
2023-02-25T00:53:33.998Z,2.21
2023-02-25T00:57:46.623Z,2.10
2023-02-25T01:01:59.171Z,1.93
2023-02-25T01:06:11.714Z,2.05
2023-02-25T01:10:24.329Z,2.00
2023-02-25T01:14:38.138Z,2.20
2023-02-25T01:18:57.119Z,2.25
2023-02-25T01:23:09.624Z,2.13
2023-02-25T01:27:23.973Z,2.27
2023-02-25T01:31:38.895Z,2.21
2023-02-25T01:35:51.446Z,2.29
2023-02-25T01:40:05.766Z,2.31
2023-02-25T01:44:33.120Z,1.93
2023-02-25T01:48:45.598Z,1.83
2023-02-25T01:53:02.841Z,1.78
2023-02-25T01:57:18.106Z,1.64
2023-02-25T02:01:36.183Z,1.50
2023-02-25T02:06:30.993Z,1.65
2023-02-25T02:10:43.444Z,1.79
2023-02-25T02:15:11.119Z,1.83
2023-02-25T02:19:52.951Z,1.81
2023-02-25T02:24:43.418Z,1.58
2023-02-25T02:29:37.847Z,1.54
2023-02-25T02:34:32.345Z,1.30
2023-02-25T02:38:52.789Z,1.37
2023-02-25T02:43:30.531Z,1.37
2023-02-25T02:48:03.472Z,1.32
2023-02-25T02:52:29.641Z,1.30
2023-02-25T02:56:44.587Z,1.30
2023-02-25T03:01:13.988Z,1.29
2023-02-25T03:05:30.573Z,1.26
2023-02-25T03:10:02.737Z,1.23
2023-02-25T03:14:16.505Z,1.33
2023-02-25T03:18:41.397Z,1.30
2023-02-25T03:22:57.732Z,1.24
2023-02-25T03:27:39.876Z,1.19
2023-02-25T03:32:10.191Z,1.41
2023-02-25T03:36:37.590Z,1.39
2023-02-25T03:40:51.739Z,1.38
2023-02-25T03:45:09.249Z,1.42
2023-02-25T03:49:32.139Z,1.33
2023-02-25T03:53:45.100Z,1.38
2023-02-25T03:57:57.552Z,1.34
2023-02-25T04:02:10.438Z,1.38
2023-02-25T04:06:26.164Z,1.34
2023-02-25T04:10:38.593Z,1.32
2023-02-25T04:14:51.111Z,1.32
2023-02-25T04:19:04.128Z,1.30
2023-02-25T04:23:27.136Z,1.28
2023-02-25T04:27:39.618Z,1.24
2023-02-25T04:31:53.081Z,1.30
2023-02-25T04:36:06.229Z,1.39
2023-02-25T04:40:22.363Z,1.31
2023-02-25T04:44:34.796Z,1.29
2023-02-25T04:48:47.221Z,1.24
2023-02-25T04:53:03.080Z,1.11
2023-02-25T04:57:15.545Z,1.16
2023-02-25T05:01:28.196Z,1.06
2023-02-25T05:05:41.901Z,1.02
2023-02-25T05:09:54.413Z,1.12
2023-02-25T05:14:06.889Z,0.93
2023-02-25T05:18:19.347Z,0.89
2023-02-25T05:22:31.780Z,0.96
2023-02-25T05:26:44.755Z,1.03
2023-02-25T05:30:57.777Z,0.89
2023-02-25T05:35:10.911Z,1.02
2023-02-25T05:39:23.913Z,1.15
2023-02-25T05:43:38.356Z,1.13
2023-02-25T05:47:50.898Z,1.03
2023-02-25T05:52:03.341Z,1.04
2023-02-25T05:56:23.960Z,1.20
2023-02-25T06:00:37.876Z,1.23
2023-02-25T06:04:54.855Z,1.17
2023-02-25T06:09:07.346Z,1.06
2023-02-25T06:13:19.839Z,1.09
2023-02-25T06:17:32.300Z,1.06
2023-02-25T06:21:56.343Z,1.16
2023-02-25T06:26:12.957Z,1.39
2023-02-25T06:30:26.612Z,1.35
2023-02-25T06:34:40.522Z,1.19
2023-02-25T06:38:52.967Z,1.15
2023-02-25T06:43:05.415Z,1.16
2023-02-25T06:47:17.966Z,1.20
2023-02-25T06:51:30.506Z,1.21
2023-02-25T06:55:42.911Z,1.40
2023-02-25T06:59:55.472Z,1.50
2023-02-25T07:04:07.979Z,1.58
2023-02-25T07:08:20.617Z,1.75
2023-02-25T07:12:33.314Z,1.77
2023-02-25T07:16:45.808Z,1.95
2023-02-25T07:20:59.137Z,1.97
2023-02-25T07:25:15.071Z,2.15
2023-02-25T07:29:27.583Z,2.17
2023-02-25T07:33:40.188Z,2.28
2023-02-25T07:37:52.689Z,2.31
2023-02-25T07:42:05.275Z,2.57
2023-02-25T07:46:18.201Z,2.37
2023-02-25T07:50:30.681Z,2.41
2023-02-25T07:54:43.289Z,2.53
2023-02-25T07:58:56.086Z,2.69
2023-02-25T08:03:09.665Z,2.60
2023-02-25T08:07:22.329Z,2.53
2023-02-25T08:11:34.840Z,2.58
2023-02-25T08:15:47.493Z,2.73
2023-02-25T08:20:00.221Z,2.66
2023-02-25T08:24:12.751Z,2.75
2023-02-25T08:28:27.846Z,2.96
2023-02-25T08:32:41.241Z,3.10
2023-02-25T08:36:53.730Z,2.92
2023-02-25T08:41:07.854Z,3.13
2023-02-25T08:45:21.545Z,2.90
2023-02-25T08:49:34.190Z,2.85
2023-02-25T08:53:46.843Z,3.01
2023-02-25T08:57:59.310Z,3.10
2023-02-25T09:02:15.994Z,3.17
2023-02-25T09:06:29.275Z,2.90
2023-02-25T09:10:50.150Z,2.99
2023-02-25T09:15:03.953Z,2.79
2023-02-25T09:19:18.793Z,2.81
2023-02-25T09:23:31.322Z,2.81
2023-02-25T09:27:43.768Z,3.16
2023-02-25T09:31:56.413Z,3.46
2023-02-25T09:36:15.986Z,4.29
2023-02-25T09:40:38.786Z,4.08
2023-02-25T09:44:58.172Z,4.28
2023-02-25T09:49:22.738Z,4.17
2023-02-25T09:53:43.129Z,3.72
2023-02-25T09:58:10.159Z,3.84
2023-02-25T10:02:56.139Z,4.43
2023-02-25T10:07:23.392Z,4.05
2023-02-25T10:11:54.320Z,4.32
2023-02-25T10:16:41.822Z,4.50
2023-02-25T10:21:08.844Z,4.28
2023-02-25T10:25:35.806Z,5.33
2023-02-25T10:29:53.770Z,5.62
2023-02-25T10:34:28.732Z,4.66
2023-02-25T10:38:54.447Z,5.35
2023-02-25T10:43:26.637Z,5.89
2023-02-25T10:47:44.023Z,5.31
2023-02-25T10:52:05.388Z,5.39
2023-02-25T10:56:41.095Z,5.21
2023-02-25T11:01:02.695Z,5.61
2023-02-25T11:05:44.382Z,5.99
2023-02-25T11:10:12.739Z,6.08
2023-02-25T11:14:32.076Z,5.99
2023-02-25T11:18:44.506Z,5.32
2023-02-25T11:22:58.369Z,5.24
2023-02-25T11:27:36.067Z,6.01
2023-02-25T11:31:55.553Z,5.14
2023-02-25T11:36:08.752Z,5.58
2023-02-25T11:40:26.190Z,5.82
2023-02-25T11:44:45.600Z,5.35
2023-02-25T11:49:19.651Z,5.72
2023-02-25T11:54:20.073Z,6.23
2023-02-25T11:59:14.206Z,5.99
2023-02-25T12:03:59.651Z,5.82
2023-02-25T12:08:47.769Z,6.07
2023-02-25T12:13:40.835Z,6.97
2023-02-25T12:18:46.150Z,5.99
2023-02-25T12:23:22.197Z,6.03
2023-02-25T12:28:05.417Z,5.79
2023-02-25T12:32:54.539Z,5.63
2023-02-25T12:37:22.522Z,5.97
2023-02-25T12:42:01.302Z,6.03
2023-02-25T12:46:45.034Z,6.73
2023-02-25T12:51:26.898Z,6.48
2023-02-25T12:56:06.360Z,6.58
2023-02-25T13:00:40.117Z,6.15
2023-02-25T13:05:22.484Z,6.91
2023-02-25T13:10:01.799Z,6.66
2023-02-25T13:14:28.829Z,6.46
2023-02-25T13:18:59.431Z,6.28
2023-02-25T13:24:09.141Z,5.37
2023-02-25T13:28:40.558Z,5.05
2023-02-25T13:33:15.630Z,5.28
2023-02-25T13:37:42.606Z,4.84
2023-02-25T13:42:46.996Z,4.97
2023-02-25T13:47:18.706Z,4.82
2023-02-25T13:51:57.137Z,4.91
2023-02-25T13:57:00.794Z,4.85
2023-02-25T14:01:57.662Z,4.62
2023-02-25T14:06:36.450Z,4.46
2023-02-25T14:11:19.204Z,4.67
2023-02-25T14:15:53.461Z,4.39
2023-02-25T14:20:23.936Z,4.61
2023-02-25T14:25:20.442Z,4.76
2023-02-25T14:29:50.574Z,4.51
2023-02-25T14:34:46.665Z,4.66
2023-02-25T14:39:47.016Z,4.35
2023-02-25T14:44:08.365Z,4.30
2023-02-25T14:48:42.779Z,4.23
2023-02-25T14:53:38.960Z,4.51
2023-02-25T14:58:31.833Z,4.53
2023-02-25T15:03:38.615Z,4.42
2023-02-25T15:08:25.723Z,4.28
2023-02-25T15:13:14.289Z,4.37
2023-02-25T15:18:01.840Z,4.44
2023-02-25T15:22:30.177Z,4.20
2023-02-25T15:26:48.144Z,4.07
2023-02-25T15:31:33.605Z,4.04
2023-02-25T15:35:49.110Z,4.13
2023-02-25T15:40:16.889Z,4.07
2023-02-25T15:44:36.424Z,3.66
2023-02-25T15:49:24.610Z,3.83
2023-02-25T15:53:42.872Z,3.71
2023-02-25T15:57:55.770Z,3.76
2023-02-25T16:02:31.205Z,4.02
2023-02-25T16:06:43.960Z,3.89
2023-02-25T16:10:58.062Z,3.81
2023-02-25T16:15:26.557Z,3.68
2023-02-25T16:19:40.938Z,3.75
2023-02-25T16:24:10.027Z,3.77
2023-02-25T16:28:49.379Z,3.49
2023-02-25T16:33:07.070Z,3.51
2023-02-25T16:37:54.039Z,3.59
2023-02-25T16:42:13.317Z,3.56
2023-02-25T16:46:33.736Z,3.45
2023-02-25T16:50:49.585Z,3.43
2023-02-25T16:55:06.436Z,3.41
2023-02-25T16:59:22.827Z,3.42
2023-02-25T17:03:47.395Z,3.41
2023-02-25T17:08:03.627Z,3.43
2023-02-25T17:12:41.646Z,3.24
2023-02-25T17:16:54.743Z,3.28
2023-02-25T17:21:30.282Z,2.37
2023-02-25T17:25:53.495Z,2.15
2023-02-25T17:30:31.219Z,1.89
2023-02-25T17:34:44.356Z,1.53
2023-02-25T17:39:02.402Z,1.31
2023-02-25T17:43:38.852Z,1.04
2023-02-25T17:47:51.429Z,1.16
2023-02-25T17:52:20.804Z,1.07
2023-02-25T17:56:35.701Z,0.81
2023-02-25T18:01:02.431Z,0.78
2023-02-25T18:05:23.050Z,0.62
2023-02-25T18:09:43.598Z,0.63
2023-02-25T18:13:56.149Z,0.64
2023-02-25T18:18:19.561Z,0.58
2023-02-25T18:22:48.768Z,0.73
2023-02-25T18:27:06.210Z,0.57
2023-02-25T18:31:20.422Z,0.40
2023-02-25T18:35:33.940Z,0.31
2023-02-25T18:39:50.025Z,-0.04
2023-02-25T18:44:02.551Z,-0.12
2023-02-25T18:48:15.120Z,-0.08
2023-02-25T18:52:27.841Z,-0.04
2023-02-25T18:56:42.468Z,0.01
2023-02-25T19:00:58.309Z,0.19
2023-02-25T19:05:10.795Z,0.12
2023-02-25T19:09:24.989Z,0.25
2023-02-25T19:13:41.367Z,0.01
2023-02-25T19:17:53.859Z,0.20
2023-02-25T19:22:06.756Z,0.06
2023-02-25T19:26:19.455Z,0.12
2023-02-25T19:30:37.553Z,0.24
2023-02-25T19:34:58.521Z,0.28
2023-02-25T19:39:21.059Z,0.37
2023-02-25T19:43:33.860Z,0.23
2023-02-25T19:47:51.481Z,0.15
2023-02-25T19:52:04.111Z,0.15
2023-02-25T19:56:16.751Z,0.16
2023-02-25T20:00:39.058Z,0.31
2023-02-25T20:04:51.471Z,0.32
2023-02-25T20:09:09.782Z,0.39
2023-02-25T20:13:22.288Z,0.45
2023-02-25T20:17:37.842Z,0.33
2023-02-25T20:21:50.431Z,0.21
2023-02-25T20:26:10.805Z,0.26
2023-02-25T20:30:33.511Z,0.25
2023-02-25T20:34:46.182Z,0.14
2023-02-25T20:39:26.348Z,-0.12
2023-02-25T20:43:38.877Z,-0.27
2023-02-25T20:47:51.552Z,-0.35
2023-02-25T20:52:04.552Z,-0.43
2023-02-25T20:56:26.120Z,-0.47
2023-02-25T21:00:39.112Z,-0.45
2023-02-25T21:04:52.210Z,-0.35
2023-02-25T21:09:06.598Z,-0.43
2023-02-25T21:13:19.032Z,-0.33
2023-02-25T21:17:31.658Z,-0.31
2023-02-25T21:21:44.166Z,-0.36
2023-02-25T21:25:57.648Z,-0.35
2023-02-25T21:30:11.172Z,-0.33
2023-02-25T21:34:23.625Z,-0.32
2023-02-25T21:38:37.563Z,-0.16
2023-02-25T21:42:51.523Z,-0.30
2023-02-25T21:47:04.454Z,-0.26
2023-02-25T21:51:23.708Z,-0.02
2023-02-25T21:55:36.131Z,-0.09
2023-02-25T21:59:48.648Z,-0.19
2023-02-25T22:04:01.377Z,-0.18
2023-02-25T22:08:15.295Z,-0.33
2023-02-25T22:12:27.848Z,-0.37
2023-02-25T22:16:40.920Z,-0.37
2023-02-25T22:20:53.986Z,-0.44
2023-02-25T22:25:07.161Z,-0.56
2023-02-25T22:29:19.678Z,-0.67
2023-02-25T22:33:33.961Z,-0.63
2023-02-25T22:37:46.406Z,-0.76
2023-02-25T22:41:58.932Z,-0.65
2023-02-25T22:46:16.098Z,-0.67
2023-02-25T22:50:29.839Z,-0.63
2023-02-25T22:54:42.392Z,-0.49
2023-02-25T22:58:55.292Z,-0.58
2023-02-25T23:03:08.685Z,-0.59
2023-02-25T23:07:21.617Z,-0.68
2023-02-25T23:11:36.134Z,-0.67
2023-02-25T23:15:48.740Z,-0.63
2023-02-25T23:20:01.481Z,-0.77
2023-02-25T23:24:18.163Z,-0.74
2023-02-25T23:28:32.657Z,-0.82
2023-02-25T23:32:46.987Z,-0.94
2023-02-25T23:36:59.430Z,-0.87
2023-02-25T23:41:12.050Z,-0.92
2023-02-25T23:45:24.533Z,-1.06
2023-02-25T23:49:37.092Z,-1.15
2023-02-25T23:53:54.241Z,-1.20
2023-02-25T23:58:06.759Z,-1.25
